Time;durP1;ratioP1;P1;durP2;ratioP2;P2;SDS_P1;SDS_P2;PMS_P1;PMS_P2;Temp;Humidity;BMP_temperature;BMP_pressure;BME280_temperature;BME280_humidity;BME280_pressure;Samples;Min_cycle;Max_cycle;Signal;HPM_P1;HPM_P2
2022/05/10 00:06:28;;;;;;;7.30;2.30;;;;;;;8.64;42.56;100538.15;428156;1285;140767;-45
2022/05/10 00:16:38;;;;;;;4.00;2.20;;;;;;;8.49;42.86;100531.55;426911;1285;142017;-44
2022/05/10 00:26:44;;;;;;;4.30;1.90;;;;;;;8.38;43.20;100528.52;426247;1285;141707;-44
2022/05/10 00:36:50;;;;;;;6.70;3.60;;;;;;;8.21;43.47;100522.00;426397;1285;143153;-48
2022/05/10 00:47:05;;;;;;;4.60;2.80;;;;;;;8.06;43.52;100513.86;427051;1285;144677;-44
2022/05/10 00:57:22;;;;;;;2.50;2.20;;;;;;;7.95;44.28;100495.81;427237;1285;142429;-47
2022/05/10 01:07:33;;;;;;;4.20;2.70;;;;;;;7.83;44.46;100483.38;426418;1285;141248;-47
2022/05/10 01:17:39;;;;;;;3.50;2.60;;;;;;;7.64;45.06;100468.72;426998;1287;141056;-44
2022/05/10 01:27:52;;;;;;;3.40;2.50;;;;;;;7.51;45.15;100464.17;425804;1285;141190;-47
2022/05/10 01:38:05;;;;;;;3.10;2.30;;;;;;;7.38;45.65;100456.27;427417;1285;143714;-47
2022/05/10 01:48:15;;;;;;;3.90;2.70;;;;;;;7.25;45.95;100448.92;425626;1285;141024;-47
2022/05/10 01:58:24;;;;;;;4.00;3.50;;;;;;;7.13;46.08;100440.29;427987;1285;141098;-48
2022/05/10 02:08:35;;;;;;;8.90;3.20;;;;;;;6.96;46.28;100437.23;426556;1285;145362;-47
2022/05/10 02:18:48;;;;;;;4.80;2.90;;;;;;;6.81;46.75;100432.35;426101;1285;140881;-45
2022/05/10 02:29:00;;;;;;;3.60;3.30;;;;;;;6.68;47.28;100427.76;427272;1285;142093;-46
2022/05/10 02:39:06;;;;;;;4.70;2.80;;;;;;;6.61;47.09;100423.80;428108;1285;140722;-47
2022/05/10 02:49:12;;;;;;;4.70;2.60;;;;;;;6.57;47.12;100420.27;427133;1285;141317;-47
2022/05/10 02:59:22;;;;;;;4.60;2.60;;;;;;;6.54;47.19;100407.52;426441;1285;140939;-42
2022/05/10 03:09:28;;;;;;;5.80;2.70;;;;;;;6.55;47.31;100405.59;426058;1285;142385;-45
2022/05/10 03:19:34;;;;;;;8.80;2.70;;;;;;;6.61;47.35;100401.20;426755;1286;141402;-45
2022/05/10 03:29:41;;;;;;;4.00;2.50;;;;;;;6.75;46.94;100400.90;428200;1285;140647;-46
2022/05/10 03:39:47;;;;;;;3.60;1.90;;;;;;;6.92;46.65;100396.11;426365;1285;140665;-45
2022/05/10 03:49:56;;;;;;;4.20;2.90;;;;;;;7.12;46.40;100394.35;429173;1285;141190;-44
2022/05/10 04:00:04;;;;;;;11.90;3.80;;;;;;;7.38;46.04;100396.86;427272;1285;140760;-46
2022/05/10 04:10:13;;;;;;;10.00;3.50;;;;;;;7.73;45.92;100392.58;428663;1285;145489;-45
2022/05/10 04:20:19;;;;;;;7.00;3.50;;;;;;;11.60;44.23;100384.56;428863;1285;141651;-46
2022/05/10 04:30:26;;;;;;;5.00;3.20;;;;;;;19.04;36.09;100368.98;427108;1285;144159;-45
2022/05/10 04:50:55;;;;;;;13.20;3.10;;;;;;;13.30;35.87;100388.39;427209;1285;145342;-46
2022/05/10 05:01:05;;;;;;;6.40;3.20;;;;;;;20.69;32.31;100374.55;427486;1285;142087;-46
2022/05/10 05:11:11;;;;;;;3.50;3.10;;;;;;;27.98;26.57;100368.91;427217;1286;144953;-47
2022/05/10 05:21:18;;;;;;;4.20;3.20;;;;;;;32.19;22.47;100360.42;428188;1285;141361;-45
2022/05/10 05:31:24;;;;;;;2.90;2.40;;;;;;;35.52;19.13;100359.20;427177;1285;141386;-46
2022/05/10 05:41:30;;;;;;;5.50;2.90;;;;;;;36.95;17.14;100363.55;426867;1285;145144;-47
2022/05/10 05:51:35;;;;;;;5.10;2.80;;;;;;;38.99;15.77;100368.45;426121;1287;141698;-47
2022/05/10 06:01:41;;;;;;;3.70;3.00;;;;;;;41.22;14.21;100358.69;426470;1287;145923;-45
2022/05/10 06:11:47;;;;;;;4.00;2.40;;;;;;;42.57;12.93;100357.60;428048;1285;146452;-45
2022/05/10 06:21:53;;;;;;;5.10;2.70;;;;;;;44.11;12.15;100347.80;426778;1287;141332;-47
2022/05/10 06:31:59;;;;;;;6.20;3.10;;;;;;;45.62;11.25;100344.42;427180;1286;141074;-46
2022/05/10 06:42:06;;;;;;;6.90;3.10;;;;;;;47.07;10.61;100336.34;426929;1287;141906;-47
2022/05/10 06:52:12;;;;;;;8.70;3.30;;;;;;;49.23;9.76;100329.14;428068;1287;142472;-47
2022/05/10 07:02:17;;;;;;;6.20;3.40;;;;;;;50.52;9.17;100326.39;429287;1285;140909;-50
2022/05/10 07:12:23;;;;;;;4.20;3.90;;;;;;;51.20;8.78;100331.04;426271;1285;141542;-49
2022/05/10 07:22:29;;;;;;;4.80;4.50;;;;;;;51.22;8.21;100329.75;426419;1285;140317;-50
2022/05/10 07:32:35;;;;;;;6.00;5.70;;;;;;;51.54;7.73;100325.88;426596;1285;141514;-49
2022/05/10 07:42:42;;;;;;;6.90;6.50;;;;;;;51.00;7.18;100314.11;425657;1284;194310;-49
2022/05/10 07:52:48;;;;;;;5.20;4.80;;;;;;;50.13;7.23;100302.39;428865;1286;142208;-51
2022/05/10 08:02:54;;;;;;;1.70;1.60;;;;;;;49.68;7.13;100307.05;425971;1287;144710;-46
2022/05/10 08:12:59;;;;;;;3.30;2.30;;;;;;;41.49;8.19;100296.66;428696;1285;141224;-50
2022/05/10 08:23:06;;;;;;;4.10;2.20;;;;;;;31.63;11.42;100295.02;438117;1286;141023;-50
2022/05/10 08:33:12;;;;;;;3.40;2.00;;;;;;;27.09;14.19;100298.65;435143;1285;142465;-49
2022/05/10 08:43:23;;;;;;;2.00;1.80;;;;;;;25.14;15.78;100294.75;442214;1285;141998;-47
2022/05/10 08:53:31;;;;;;;3.10;1.90;;;;;;;23.65;16.81;100293.70;435377;1285;141403;-49
2022/05/10 09:03:38;;;;;;;;;;;;;;;22.44;17.83;100284.05;441510;1285;144690;-49
2022/05/10 09:13:45;;;;;;;;;;;;;;;21.87;18.73;100280.11;442269;1285;135027;-45
2022/05/10 09:24:07;;;;;;;2.60;2.00;;;;;;;21.45;19.48;100270.67;435388;1285;128844;-50
2022/05/10 09:44:37;;;;;;;3.90;2.50;;;;;;;20.65;20.82;100263.52;440088;1285;142228;-48
2022/05/10 09:54:44;;;;;;;3.10;2.00;;;;;;;20.20;20.92;100254.73;435778;1287;141206;-47
2022/05/10 10:04:50;;;;;;;2.40;2.00;;;;;;;20.13;21.31;100241.15;431892;1286;145693;-46
2022/05/10 10:14:57;;;;;;;9.90;3.00;;;;;;;20.11;21.09;100226.77;429923;1286;142303;-46
2022/05/10 10:25:09;;;;;;;3.10;1.80;;;;;;;19.99;21.19;100214.11;442112;1286;141698;-46
2022/05/10 10:35:21;;;;;;;3.20;1.80;;;;;;;19.53;21.24;100209.17;438243;1286;142087;-46
2022/05/10 10:45:37;;;;;;;1.40;1.30;;;;;;;19.23;21.96;100185.95;428190;1286;141972;-47
2022/05/10 10:55:59;;;;;;;3.40;1.70;;;;;;;18.99;22.52;100169.02;427004;1287;141379;-47
2022/05/10 11:06:23;;;;;;;1.20;1.10;;;;;;;18.96;22.85;100160.04;427625;1286;145966;-50
2022/05/10 11:16:42;;;;;;;4.40;2.10;;;;;;;18.90;22.46;100146.20;428704;1285;141257;-47
2022/05/10 11:27:07;;;;;;;2.00;1.20;;;;;;;18.96;22.29;100121.30;429501;1286;142195;-46
2022/05/10 11:37:21;;;;;;;2.30;1.60;;;;;;;18.77;22.07;100103.52;429543;1287;142763;-48
2022/05/10 11:47:56;;;;;;;6.30;1.70;;;;;;;18.57;22.37;100090.59;428072;1287;140456;-47
2022/05/10 11:58:05;;;;;;;3.90;1.50;;;;;;;18.49;22.77;100074.23;426718;1287;142286;-49
2022/05/10 12:08:44;;;;;;;2.40;1.70;;;;;;;18.72;23.04;100060.14;442089;1286;141306;-46
2022/05/10 12:30:20;;;;;;;2.20;1.50;;;;;;;18.87;23.58;100035.02;428468;1285;144676;-46
2022/05/10 12:40:46;;;;;;;2.70;1.40;;;;;;;18.90;23.75;100015.27;427085;1287;142221;-45
2022/05/10 12:51:03;;;;;;;6.90;1.70;;;;;;;18.93;23.81;100001.16;426739;1285;142892;-49
2022/05/10 13:01:12;;;;;;;1.90;1.60;;;;;;;19.07;23.80;99986.42;427085;1285;146062;-48
2022/05/10 13:11:21;;;;;;;2.30;0.80;;;;;;;19.27;23.54;99973.38;428788;1285;142502;-50
2022/05/10 13:21:26;;;;;;;;;;;;;;;19.36;22.62;99959.79;430822;1286;141270;-50
2022/05/10 13:31:38;;;;;;;1.10;1.00;;;;;;;19.45;22.03;99948.39;431131;1286;127871;-48
2022/05/10 13:41:46;;;;;;;4.60;0.80;;;;;;;19.51;21.25;99921.89;427012;1286;147008;-49
2022/05/10 13:51:54;;;;;;;1.70;0.90;;;;;;;19.65;21.74;99914.91;426853;1285;143630;-49
2022/05/10 14:02:05;;;;;;;1.10;0.80;;;;;;;19.66;21.86;99902.25;427928;1286;145115;-49
2022/05/10 14:12:15;;;;;;;1.70;0.90;;;;;;;19.74;21.95;99880.46;426736;1285;141857;-54
2022/05/10 14:22:23;;;;;;;4.30;1.00;;;;;;;19.74;22.08;99856.81;427401;1286;144856;-53
2022/05/10 14:32:32;;;;;;;;;;;;;;;19.87;22.30;99846.41;427487;1285;142449;-49
2022/05/10 14:42:39;;;;;;;1.40;0.70;;;;;;;19.87;22.29;99835.85;425303;1286;127662;-47
2022/05/10 14:53:13;;;;;;;1.20;0.70;;;;;;;19.85;22.33;99823.81;426658;1285;140786;-49
2022/05/10 15:03:24;;;;;;;1.80;1.00;;;;;;;19.87;22.46;99808.17;427317;1285;182677;-48
2022/05/10 15:13:30;;;;;;;2.00;1.10;;;;;;;19.88;22.68;99797.36;429264;1285;142247;-48
2022/05/10 15:23:37;;;;;;;1.40;0.80;;;;;;;19.88;22.78;99787.44;428350;1287;141705;-48
2022/05/10 15:33:43;;;;;;;2.20;0.80;;;;;;;19.89;22.71;99772.45;435508;1285;143074;-52
2022/05/10 15:43:48;;;;;;;1.70;1.00;;;;;;;19.92;22.78;99756.92;438666;1283;142072;-50
2022/05/10 15:53:54;;;;;;;2.30;0.80;;;;;;;19.91;22.96;99739.03;440578;1285;141356;-50
2022/05/10 16:04:20;;;;;;;2.80;1.00;;;;;;;19.87;23.06;99729.08;440988;1285;143311;-49
2022/05/10 16:14:26;;;;;;;1.30;1.00;;;;;;;19.89;23.49;99715.58;441076;1285;141696;-48
2022/05/10 16:24:31;;;;;;;5.80;1.30;;;;;;;19.93;23.51;99708.26;436071;1285;142188;-48
2022/05/10 16:34:38;;;;;;;0.90;0.70;;;;;;;19.88;23.66;99694.71;441372;1286;145122;-50
2022/05/10 16:44:44;;;;;;;2.00;1.20;;;;;;;19.77;23.30;99680.14;430957;1285;141383;-47
2022/05/10 16:54:50;;;;;;;4.50;1.00;;;;;;;19.77;23.34;99672.40;436005;1284;142934;-49
2022/05/10 17:04:56;;;;;;;1.50;1.00;;;;;;;20.83;22.96;99665.06;431049;1285;142466;-49
2022/05/10 17:15:02;;;;;;;1.50;0.90;;;;;;;20.02;23.10;99663.90;439879;1285;142094;-48
2022/05/10 17:25:10;;;;;;;2.30;1.10;;;;;;;19.54;23.92;99654.11;442024;1285;141539;-49
2022/05/10 17:35:17;;;;;;;2.50;0.90;;;;;;;19.18;24.74;99652.50;442055;1285;141697;-52
2022/05/10 17:45:23;;;;;;;1.50;1.20;;;;;;;18.64;25.53;99660.40;437013;1285;141864;-49
2022/05/10 17:55:29;;;;;;;5.00;2.00;;;;;;;18.15;26.44;99664.48;439693;1285;141462;-50
2022/05/10 18:05:35;;;;;;;4.00;1.60;;;;;;;17.73;27.05;99663.48;425446;1287;142198;-49
2022/05/10 18:15:41;;;;;;;4.00;1.90;;;;;;;17.24;27.77;99656.58;437488;1285;142024;-49
2022/05/10 18:25:47;;;;;;;6.10;2.10;;;;;;;16.81;28.76;99653.46;432019;1285;142530;-48
2022/05/10 18:35:54;;;;;;;2.50;1.40;;;;;;;16.43;29.44;99654.99;439521;1285;142950;-51
2022/05/10 18:46:00;;;;;;;5.80;1.70;;;;;;;16.07;29.73;99662.51;442006;1285;141211;-49
2022/05/10 18:56:10;;;;;;;20.70;7.00;;;;;;;15.73;30.94;99665.33;436919;1285;141376;-49
2022/05/10 19:06:16;;;;;;;19.00;8.40;;;;;;;15.21;34.18;99664.48;440707;1285;141725;-50
2022/05/10 19:16:22;;;;;;;20.00;7.90;;;;;;;14.71;36.43;99676.64;429373;1285;142124;-51
2022/05/10 19:26:30;;;;;;;14.90;6.30;;;;;;;14.24;38.11;99668.34;440052;1284;141460;-48
2022/05/10 19:36:35;;;;;;;8.70;4.50;;;;;;;13.86;38.79;99660.14;430933;1285;144268;-47
2022/05/10 19:46:42;;;;;;;18.50;7.50;;;;;;;13.60;38.78;99657.33;425984;1285;143592;-52
2022/05/10 19:56:48;;;;;;;10.30;4.20;;;;;;;13.28;40.62;99667.40;441569;1285;143508;-48
2022/05/10 20:06:54;;;;;;;9.30;3.70;;;;;;;13.00;40.17;99655.73;439026;1285;142186;-51
2022/05/10 20:17:00;;;;;;;7.30;4.70;;;;;;;13.10;39.05;99649.05;425850;1285;141929;-50
2022/05/10 20:27:07;;;;;;;8.30;3.80;;;;;;;13.01;38.93;99647.95;425467;1286;142527;-50
2022/05/10 20:37:12;;;;;;;8.80;6.80;;;;;;;13.03;38.67;99640.24;427139;1285;141478;-51
2022/05/10 20:47:21;;;;;;;5.70;4.00;;;;;;;12.94;38.92;99629.78;426290;1285;141340;-48
2022/05/10 20:57:27;;;;;;;6.50;3.70;;;;;;;12.86;39.20;99632.68;426259;1284;142723;-48
2022/05/10 21:17:56;;;;;;;9.00;5.30;;;;;;;12.56;39.95;99627.41;425516;1285;145485;-47
2022/05/10 21:28:02;;;;;;;7.60;4.70;;;;;;;12.47;40.13;99625.25;426242;1287;143110;-48
2022/05/10 21:38:08;;;;;;;7.20;5.20;;;;;;;12.39;40.47;99620.23;426294;1285;249282;-47
2022/05/10 21:48:15;;;;;;;9.50;5.30;;;;;;;12.28;40.95;99612.00;425643;1285;142581;-48
2022/05/10 21:58:21;;;;;;;9.80;5.50;;;;;;;12.18;41.52;99604.11;425868;1287;143478;-52
2022/05/10 22:08:27;;;;;;;9.40;4.40;;;;;;;12.05;42.14;99602.41;428225;1285;142291;-50
2022/05/10 22:18:33;;;;;;;9.90;5.60;;;;;;;11.91;42.61;99589.83;425823;1285;142847;-51
2022/05/10 22:28:39;;;;;;;7.10;5.50;;;;;;;11.75;43.05;99581.48;427172;1285;141939;-50
2022/05/10 22:38:45;;;;;;;8.90;5.00;;;;;;;11.66;43.68;99571.72;426712;1285;141006;-49
2022/05/10 22:48:51;;;;;;;7.00;4.30;;;;;;;11.62;44.06;99563.43;426275;1286;141146;-45
2022/05/10 22:58:57;;;;;;;11.70;5.20;;;;;;;11.58;44.48;99555.98;426798;1286;142293;-42
2022/05/10 23:09:03;;;;;;;8.40;4.60;;;;;;;11.56;44.73;99556.83;425657;1285;142440;-45
2022/05/10 23:19:09;;;;;;;6.80;4.00;;;;;;;11.63;44.94;99551.61;427387;1287;140783;-46
2022/05/10 23:29:15;;;;;;;6.40;3.80;;;;;;;11.71;45.06;99544.20;427646;1286;146251;-46
2022/05/10 23:39:21;;;;;;;7.00;4.30;;;;;;;11.61;45.32;99540.64;426552;1286;142674;-46
2022/05/10 23:49:27;;;;;;;7.70;3.40;;;;;;;11.57;45.40;99529.38;428047;1285;140984;-46
2022/05/10 23:59:33;;;;;;;4.50;3.10;;;;;;;11.55;46.11;99521.48;427570;1285;144550;-46
